sensor_id;sensor_type;location;lat;lon;timestamp;P1;durP1;ratioP1;P2;durP2;ratioP2
42514;SDS011;28144;49.920;18.730;2022-12-18T00:00:59;103.03;;;33.92;;
42514;SDS011;28144;49.920;18.730;2022-12-18T00:03:41;110.60;;;32.23;;
42514;SDS011;28144;49.920;18.730;2022-12-18T00:06:07;125.50;;;38.60;;
42514;SDS011;28144;49.920;18.730;2022-12-18T00:08:34;115.95;;;36.03;;
42514;SDS011;28144;49.920;18.730;2022-12-18T00:11:06;113.35;;;35.38;;
42514;SDS011;28144;49.920;18.730;2022-12-18T00:13:33;110.17;;;34.97;;
42514;SDS011;28144;49.920;18.730;2022-12-18T00:16:03;117.95;;;36.88;;
42514;SDS011;28144;49.920;18.730;2022-12-18T00:18:30;125.57;;;38.83;;
42514;SDS011;28144;49.920;18.730;2022-12-18T00:20:58;116.60;;;35.40;;
42514;SDS011;28144;49.920;18.730;2022-12-18T00:23:26;122.87;;;38.80;;
42514;SDS011;28144;49.920;18.730;2022-12-18T00:25:52;111.20;;;35.95;;
42514;SDS011;28144;49.920;18.730;2022-12-18T00:28:18;118.97;;;35.70;;
42514;SDS011;28144;49.920;18.730;2022-12-18T00:30:43;112.70;;;38.03;;
42514;SDS011;28144;49.920;18.730;2022-12-18T00:33:09;122.83;;;37.17;;
42514;SDS011;28144;49.920;18.730;2022-12-18T00:35:35;118.77;;;36.50;;
42514;SDS011;28144;49.920;18.730;2022-12-18T00:38:01;113.77;;;36.80;;
42514;SDS011;28144;49.920;18.730;2022-12-18T00:40:26;116.20;;;38.43;;
42514;SDS011;28144;49.920;18.730;2022-12-18T00:42:52;124.20;;;37.53;;
42514;SDS011;28144;49.920;18.730;2022-12-18T00:45:21;126.23;;;39.67;;
42514;SDS011;28144;49.920;18.730;2022-12-18T00:47:54;127.33;;;37.90;;
42514;SDS011;28144;49.920;18.730;2022-12-18T00:50:20;125.80;;;39.30;;
42514;SDS011;28144;49.920;18.730;2022-12-18T00:52:47;115.88;;;34.92;;
42514;SDS011;28144;49.920;18.730;2022-12-18T00:55:12;114.70;;;34.40;;
42514;SDS011;28144;49.920;18.730;2022-12-18T00:57:38;104.00;;;32.87;;
42514;SDS011;28144;49.920;18.730;2022-12-18T01:00:05;104.37;;;31.70;;
42514;SDS011;28144;49.920;18.730;2022-12-18T01:02:32;102.47;;;32.90;;
42514;SDS011;28144;49.920;18.730;2022-12-18T01:04:58;101.40;;;32.23;;
42514;SDS011;28144;49.920;18.730;2022-12-18T01:07:24;109.40;;;34.47;;
42514;SDS011;28144;49.920;18.730;2022-12-18T01:09:49;105.63;;;33.43;;
42514;SDS011;28144;49.920;18.730;2022-12-18T01:12:15;108.40;;;34.87;;
42514;SDS011;28144;49.920;18.730;2022-12-18T01:14:41;119.43;;;35.33;;
42514;SDS011;28144;49.920;18.730;2022-12-18T01:17:07;114.60;;;35.97;;
42514;SDS011;28144;49.920;18.730;2022-12-18T01:19:32;119.80;;;35.27;;
42514;SDS011;28144;49.920;18.730;2022-12-18T01:21:58;108.77;;;34.37;;
42514;SDS011;28144;49.920;18.730;2022-12-18T01:24:24;110.10;;;33.60;;
42514;SDS011;28144;49.920;18.730;2022-12-18T01:26:50;113.70;;;35.33;;
42514;SDS011;28144;49.920;18.730;2022-12-18T01:29:15;120.73;;;37.13;;
42514;SDS011;28144;49.920;18.730;2022-12-18T01:31:41;120.43;;;36.30;;
42514;SDS011;28144;49.920;18.730;2022-12-18T01:34:08;123.53;;;35.90;;
42514;SDS011;28144;49.920;18.730;2022-12-18T01:36:36;117.17;;;35.57;;
42514;SDS011;28144;49.920;18.730;2022-12-18T01:39:04;112.73;;;36.13;;
42514;SDS011;28144;49.920;18.730;2022-12-18T01:41:33;111.03;;;34.43;;
42514;SDS011;28144;49.920;18.730;2022-12-18T01:47:20;113.10;;;32.13;;
42514;SDS011;28144;49.920;18.730;2022-12-18T01:49:49;116.10;;;33.43;;
42514;SDS011;28144;49.920;18.730;2022-12-18T01:52:15;110.03;;;32.20;;
42514;SDS011;28144;49.920;18.730;2022-12-18T01:54:41;91.20;;;30.77;;
42514;SDS011;28144;49.920;18.730;2022-12-18T01:57:08;93.88;;;31.67;;
42514;SDS011;28144;49.920;18.730;2022-12-18T01:59:33;88.13;;;30.07;;
42514;SDS011;28144;49.920;18.730;2022-12-18T02:02:00;108.53;;;31.98;;
42514;SDS011;28144;49.920;18.730;2022-12-18T02:04:27;94.50;;;31.53;;
42514;SDS011;28144;49.920;18.730;2022-12-18T02:07:28;89.05;;;30.80;;
42514;SDS011;28144;49.920;18.730;2022-12-18T02:09:49;109.40;;;30.30;;
42514;SDS011;28144;49.920;18.730;2022-12-18T02:12:18;97.27;;;30.37;;
42514;SDS011;28144;49.920;18.730;2022-12-18T02:17:50;96.13;;;29.63;;
42514;SDS011;28144;49.920;18.730;2022-12-18T02:20:24;96.77;;;31.60;;
42514;SDS011;28144;49.920;18.730;2022-12-18T02:28:28;91.47;;;29.47;;
42514;SDS011;28144;49.920;18.730;2022-12-18T02:30:56;85.73;;;28.73;;
42514;SDS011;28144;49.920;18.730;2022-12-18T02:33:25;83.93;;;28.30;;
42514;SDS011;28144;49.920;18.730;2022-12-18T02:35:52;98.57;;;30.40;;
42514;SDS011;28144;49.920;18.730;2022-12-18T02:38:19;93.03;;;30.60;;
42514;SDS011;28144;49.920;18.730;2022-12-18T02:40:45;94.80;;;29.50;;
42514;SDS011;28144;49.920;18.730;2022-12-18T02:43:13;88.03;;;29.27;;
42514;SDS011;28144;49.920;18.730;2022-12-18T02:45:47;98.17;;;29.30;;
42514;SDS011;28144;49.920;18.730;2022-12-18T02:48:13;85.70;;;28.37;;
42514;SDS011;28144;49.920;18.730;2022-12-18T02:50:41;86.47;;;30.33;;
42514;SDS011;28144;49.920;18.730;2022-12-18T02:53:19;84.93;;;29.17;;
42514;SDS011;28144;49.920;18.730;2022-12-18T02:59:04;94.53;;;29.77;;
42514;SDS011;28144;49.920;18.730;2022-12-18T03:02:16;90.97;;;29.60;;
42514;SDS011;28144;49.920;18.730;2022-12-18T03:04:41;83.40;;;27.17;;
42514;SDS011;28144;49.920;18.730;2022-12-18T03:07:15;81.25;;;27.25;;
42514;SDS011;28144;49.920;18.730;2022-12-18T03:09:48;80.87;;;27.50;;
42514;SDS011;28144;49.920;18.730;2022-12-18T03:12:28;90.97;;;29.37;;
42514;SDS011;28144;49.920;18.730;2022-12-18T03:15:03;95.67;;;29.13;;
42514;SDS011;28144;49.920;18.730;2022-12-18T03:17:32;90.23;;;28.57;;
42514;SDS011;28144;49.920;18.730;2022-12-18T03:20:02;84.00;;;28.20;;
42514;SDS011;28144;49.920;18.730;2022-12-18T03:22:32;94.50;;;29.60;;
42514;SDS011;28144;49.920;18.730;2022-12-18T03:24:59;97.60;;;31.43;;
42514;SDS011;28144;49.920;18.730;2022-12-18T03:27:26;94.30;;;28.83;;
42514;SDS011;28144;49.920;18.730;2022-12-18T03:30:04;106.33;;;29.90;;
42514;SDS011;28144;49.920;18.730;2022-12-18T03:32:38;96.07;;;28.67;;
42514;SDS011;28144;49.920;18.730;2022-12-18T03:35:06;94.50;;;29.30;;
42514;SDS011;28144;49.920;18.730;2022-12-18T03:37:32;87.78;;;29.45;;
42514;SDS011;28144;49.920;18.730;2022-12-18T03:39:58;90.33;;;28.20;;
42514;SDS011;28144;49.920;18.730;2022-12-18T03:45:20;79.97;;;26.47;;
42514;SDS011;28144;49.920;18.730;2022-12-18T03:47:55;78.97;;;27.10;;
42514;SDS011;28144;49.920;18.730;2022-12-18T03:50:27;98.00;;;27.40;;
42514;SDS011;28144;49.920;18.730;2022-12-18T03:53:00;72.87;;;24.63;;
42514;SDS011;28144;49.920;18.730;2022-12-18T03:55:32;80.67;;;25.73;;
42514;SDS011;28144;49.920;18.730;2022-12-18T04:00:25;85.45;;;25.80;;
42514;SDS011;28144;49.920;18.730;2022-12-18T04:02:51;71.10;;;24.90;;
42514;SDS011;28144;49.920;18.730;2022-12-18T04:05:19;89.73;;;27.17;;
42514;SDS011;28144;49.920;18.730;2022-12-18T04:07:46;81.93;;;26.60;;
42514;SDS011;28144;49.920;18.730;2022-12-18T04:10:13;89.90;;;28.20;;
42514;SDS011;28144;49.920;18.730;2022-12-18T04:12:40;87.18;;;28.17;;
42514;SDS011;28144;49.920;18.730;2022-12-18T04:15:06;84.93;;;29.90;;
42514;SDS011;28144;49.920;18.730;2022-12-18T04:17:32;78.57;;;28.00;;
42514;SDS011;28144;49.920;18.730;2022-12-18T04:19:58;81.70;;;26.07;;
42514;SDS011;28144;49.920;18.730;2022-12-18T04:22:24;81.27;;;26.70;;
42514;SDS011;28144;49.920;18.730;2022-12-18T04:24:49;86.90;;;27.93;;
42514;SDS011;28144;49.920;18.730;2022-12-18T04:27:15;82.17;;;26.20;;
42514;SDS011;28144;49.920;18.730;2022-12-18T04:29:41;84.33;;;26.90;;
42514;SDS011;28144;49.920;18.730;2022-12-18T04:32:06;73.13;;;24.70;;
42514;SDS011;28144;49.920;18.730;2022-12-18T04:34:33;77.43;;;25.88;;
42514;SDS011;28144;49.920;18.730;2022-12-18T04:36:58;89.37;;;27.33;;
42514;SDS011;28144;49.920;18.730;2022-12-18T04:39:24;78.87;;;25.27;;
42514;SDS011;28144;49.920;18.730;2022-12-18T04:41:50;82.70;;;26.33;;
42514;SDS011;28144;49.920;18.730;2022-12-18T04:44:16;77.97;;;24.37;;
42514;SDS011;28144;49.920;18.730;2022-12-18T04:46:41;86.03;;;26.13;;
42514;SDS011;28144;49.920;18.730;2022-12-18T04:49:07;74.47;;;24.93;;
42514;SDS011;28144;49.920;18.730;2022-12-18T04:51:33;79.33;;;25.43;;
42514;SDS011;28144;49.920;18.730;2022-12-18T04:53:58;73.03;;;25.90;;
42514;SDS011;28144;49.920;18.730;2022-12-18T04:56:24;72.57;;;26.43;;
42514;SDS011;28144;49.920;18.730;2022-12-18T04:58:50;70.43;;;24.27;;
42514;SDS011;28144;49.920;18.730;2022-12-18T05:01:16;77.40;;;26.80;;
42514;SDS011;28144;49.920;18.730;2022-12-18T05:03:42;83.28;;;25.40;;
42514;SDS011;28144;49.920;18.730;2022-12-18T05:06:08;82.43;;;26.73;;
42514;SDS011;28144;49.920;18.730;2022-12-18T05:08:34;81.75;;;26.13;;
42514;SDS011;28144;49.920;18.730;2022-12-18T05:11:10;74.77;;;25.27;;
42514;SDS011;28144;49.920;18.730;2022-12-18T05:13:39;84.53;;;26.50;;
42514;SDS011;28144;49.920;18.730;2022-12-18T05:16:05;131.53;;;33.67;;
42514;SDS011;28144;49.920;18.730;2022-12-18T05:18:31;143.70;;;37.55;;
42514;SDS011;28144;49.920;18.730;2022-12-18T05:20:57;90.07;;;27.67;;
42514;SDS011;28144;49.920;18.730;2022-12-18T05:23:23;76.80;;;25.42;;
42514;SDS011;28144;49.920;18.730;2022-12-18T05:25:53;105.28;;;28.38;;
42514;SDS011;28144;49.920;18.730;2022-12-18T05:28:20;98.10;;;29.17;;
42514;SDS011;28144;49.920;18.730;2022-12-18T05:30:50;87.60;;;27.90;;
42514;SDS011;28144;49.920;18.730;2022-12-18T05:33:20;88.17;;;27.33;;
42514;SDS011;28144;49.920;18.730;2022-12-18T05:35:53;81.03;;;25.80;;
42514;SDS011;28144;49.920;18.730;2022-12-18T05:38:20;86.17;;;27.20;;
42514;SDS011;28144;49.920;18.730;2022-12-18T05:40:46;84.72;;;26.23;;
42514;SDS011;28144;49.920;18.730;2022-12-18T05:43:13;81.10;;;27.30;;
42514;SDS011;28144;49.920;18.730;2022-12-18T05:45:39;87.30;;;28.93;;
42514;SDS011;28144;49.920;18.730;2022-12-18T05:48:05;68.55;;;24.80;;
42514;SDS011;28144;49.920;18.730;2022-12-18T05:50:33;75.07;;;26.27;;
42514;SDS011;28144;49.920;18.730;2022-12-18T05:53:00;78.23;;;25.47;;
42514;SDS011;28144;49.920;18.730;2022-12-18T05:55:25;85.83;;;27.17;;
42514;SDS011;28144;49.920;18.730;2022-12-18T05:57:51;79.90;;;25.90;;
42514;SDS011;28144;49.920;18.730;2022-12-18T06:00:17;80.97;;;26.00;;
42514;SDS011;28144;49.920;18.730;2022-12-18T06:02:46;79.32;;;26.05;;
42514;SDS011;28144;49.920;18.730;2022-12-18T06:05:12;83.20;;;26.07;;
42514;SDS011;28144;49.920;18.730;2022-12-18T06:07:38;71.00;;;23.20;;
42514;SDS011;28144;49.920;18.730;2022-12-18T06:10:04;77.93;;;24.43;;
42514;SDS011;28144;49.920;18.730;2022-12-18T06:12:30;84.85;;;24.83;;
42514;SDS011;28144;49.920;18.730;2022-12-18T06:14:55;168.40;;;58.33;;
42514;SDS011;28144;49.920;18.730;2022-12-18T06:17:21;107.03;;;36.97;;
42514;SDS011;28144;49.920;18.730;2022-12-18T06:19:47;134.57;;;45.60;;
42514;SDS011;28144;49.920;18.730;2022-12-18T06:22:13;113.57;;;37.10;;
42514;SDS011;28144;49.920;18.730;2022-12-18T06:24:38;115.93;;;40.97;;
42514;SDS011;28144;49.920;18.730;2022-12-18T06:27:04;93.87;;;29.70;;
42514;SDS011;28144;49.920;18.730;2022-12-18T06:29:30;90.60;;;29.73;;
42514;SDS011;28144;49.920;18.730;2022-12-18T06:31:56;83.57;;;27.97;;
42514;SDS011;28144;49.920;18.730;2022-12-18T06:34:21;81.50;;;28.13;;
42514;SDS011;28144;49.920;18.730;2022-12-18T06:36:47;86.93;;;30.00;;
42514;SDS011;28144;49.920;18.730;2022-12-18T06:39:13;85.97;;;27.40;;
42514;SDS011;28144;49.920;18.730;2022-12-18T06:41:39;84.83;;;27.50;;
42514;SDS011;28144;49.920;18.730;2022-12-18T06:44:04;75.00;;;24.37;;
42514;SDS011;28144;49.920;18.730;2022-12-18T06:46:31;88.30;;;29.33;;
42514;SDS011;28144;49.920;18.730;2022-12-18T06:48:57;94.72;;;29.40;;
42514;SDS011;28144;49.920;18.730;2022-12-18T06:51:23;93.65;;;31.35;;
42514;SDS011;28144;49.920;18.730;2022-12-18T06:53:49;106.03;;;31.25;;
42514;SDS011;28144;49.920;18.730;2022-12-18T06:56:15;93.63;;;30.50;;
42514;SDS011;28144;49.920;18.730;2022-12-18T06:58:41;90.47;;;28.13;;
42514;SDS011;28144;49.920;18.730;2022-12-18T07:01:09;97.63;;;28.30;;
42514;SDS011;28144;49.920;18.730;2022-12-18T07:03:36;205.63;;;60.97;;
42514;SDS011;28144;49.920;18.730;2022-12-18T07:06:02;88.13;;;28.33;;
42514;SDS011;28144;49.920;18.730;2022-12-18T07:08:28;74.33;;;24.97;;
42514;SDS011;28144;49.920;18.730;2022-12-18T07:10:55;76.10;;;24.13;;
42514;SDS011;28144;49.920;18.730;2022-12-18T07:13:21;86.50;;;28.07;;
42514;SDS011;28144;49.920;18.730;2022-12-18T07:15:47;91.77;;;27.93;;
42514;SDS011;28144;49.920;18.730;2022-12-18T07:18:13;84.07;;;26.57;;
42514;SDS011;28144;49.920;18.730;2022-12-18T07:20:38;82.87;;;26.97;;
42514;SDS011;28144;49.920;18.730;2022-12-18T07:23:04;88.90;;;27.93;;
42514;SDS011;28144;49.920;18.730;2022-12-18T07:25:34;82.65;;;26.05;;
42514;SDS011;28144;49.920;18.730;2022-12-18T07:28:01;86.37;;;28.27;;
42514;SDS011;28144;49.920;18.730;2022-12-18T07:30:27;72.45;;;24.05;;
42514;SDS011;28144;49.920;18.730;2022-12-18T07:32:53;84.53;;;26.00;;
42514;SDS011;28144;49.920;18.730;2022-12-18T07:35:18;63.27;;;18.77;;
42514;SDS011;28144;49.920;18.730;2022-12-18T07:37:44;81.70;;;25.07;;
42514;SDS011;28144;49.920;18.730;2022-12-18T07:40:11;59.17;;;19.45;;
42514;SDS011;28144;49.920;18.730;2022-12-18T07:42:37;48.53;;;16.63;;
42514;SDS011;28144;49.920;18.730;2022-12-18T07:45:03;117.50;;;38.07;;
42514;SDS011;28144;49.920;18.730;2022-12-18T07:47:33;83.85;;;27.95;;
42514;SDS011;28144;49.920;18.730;2022-12-18T07:50:00;81.60;;;24.87;;
42514;SDS011;28144;49.920;18.730;2022-12-18T07:52:26;56.37;;;16.77;;
42514;SDS011;28144;49.920;18.730;2022-12-18T07:54:52;51.07;;;17.00;;
42514;SDS011;28144;49.920;18.730;2022-12-18T07:57:17;67.47;;;20.43;;
42514;SDS011;28144;49.920;18.730;2022-12-18T07:59:43;107.30;;;34.07;;
42514;SDS011;28144;49.920;18.730;2022-12-18T08:02:09;103.50;;;37.67;;
42514;SDS011;28144;49.920;18.730;2022-12-18T08:04:35;81.70;;;26.57;;
42514;SDS011;28144;49.920;18.730;2022-12-18T08:07:00;107.50;;;36.97;;
42514;SDS011;28144;49.920;18.730;2022-12-18T08:09:26;464.67;;;135.17;;
42514;SDS011;28144;49.920;18.730;2022-12-18T08:11:51;495.33;;;142.87;;
42514;SDS011;28144;49.920;18.730;2022-12-18T08:14:17;182.03;;;52.77;;
42514;SDS011;28144;49.920;18.730;2022-12-18T08:16:43;340.87;;;104.93;;
42514;SDS011;28144;49.920;18.730;2022-12-18T08:19:12;529.87;;;191.50;;
42514;SDS011;28144;49.920;18.730;2022-12-18T08:21:40;619.03;;;248.37;;
42514;SDS011;28144;49.920;18.730;2022-12-18T08:24:09;186.60;;;57.77;;
42514;SDS011;28144;49.920;18.730;2022-12-18T08:26:39;151.20;;;39.47;;
42514;SDS011;28144;49.920;18.730;2022-12-18T08:29:05;174.05;;;39.92;;
42514;SDS011;28144;49.920;18.730;2022-12-18T08:31:31;89.80;;;28.63;;
42514;SDS011;28144;49.920;18.730;2022-12-18T08:33:57;83.73;;;27.03;;
42514;SDS011;28144;49.920;18.730;2022-12-18T08:36:23;79.10;;;27.43;;
42514;SDS011;28144;49.920;18.730;2022-12-18T08:38:49;94.97;;;28.52;;
42514;SDS011;28144;49.920;18.730;2022-12-18T08:41:15;94.50;;;27.13;;
42514;SDS011;28144;49.920;18.730;2022-12-18T08:43:42;68.03;;;24.08;;
42514;SDS011;28144;49.920;18.730;2022-12-18T08:46:26;77.47;;;25.13;;
42514;SDS011;28144;49.920;18.730;2022-12-18T08:48:53;76.57;;;24.90;;
42514;SDS011;28144;49.920;18.730;2022-12-18T08:51:21;78.83;;;27.53;;
42514;SDS011;28144;49.920;18.730;2022-12-18T08:53:47;88.47;;;26.40;;
42514;SDS011;28144;49.920;18.730;2022-12-18T08:56:13;81.47;;;25.23;;
42514;SDS011;28144;49.920;18.730;2022-12-18T08:58:39;81.95;;;26.63;;
42514;SDS011;28144;49.920;18.730;2022-12-18T09:01:06;77.88;;;25.23;;
42514;SDS011;28144;49.920;18.730;2022-12-18T09:03:34;71.70;;;25.00;;
42514;SDS011;28144;49.920;18.730;2022-12-18T09:06:00;74.47;;;24.20;;
42514;SDS011;28144;49.920;18.730;2022-12-18T09:08:27;84.53;;;24.17;;
42514;SDS011;28144;49.920;18.730;2022-12-18T09:10:52;72.10;;;23.30;;
42514;SDS011;28144;49.920;18.730;2022-12-18T09:13:18;71.33;;;23.50;;
42514;SDS011;28144;49.920;18.730;2022-12-18T09:15:45;75.17;;;24.23;;
42514;SDS011;28144;49.920;18.730;2022-12-18T09:18:14;75.17;;;23.97;;
42514;SDS011;28144;49.920;18.730;2022-12-18T09:20:41;66.20;;;22.10;;
42514;SDS011;28144;49.920;18.730;2022-12-18T09:23:07;67.63;;;24.23;;
42514;SDS011;28144;49.920;18.730;2022-12-18T09:25:34;65.72;;;22.73;;
42514;SDS011;28144;49.920;18.730;2022-12-18T09:28:05;74.47;;;23.80;;
42514;SDS011;28144;49.920;18.730;2022-12-18T09:30:32;70.77;;;22.17;;
42514;SDS011;28144;49.920;18.730;2022-12-18T09:33:01;76.13;;;22.57;;
42514;SDS011;28144;49.920;18.730;2022-12-18T09:35:28;76.00;;;22.90;;
42514;SDS011;28144;49.920;18.730;2022-12-18T09:37:54;60.13;;;21.37;;
42514;SDS011;28144;49.920;18.730;2022-12-18T09:40:21;57.17;;;21.07;;
42514;SDS011;28144;49.920;18.730;2022-12-18T09:42:52;64.17;;;20.80;;
42514;SDS011;28144;49.920;18.730;2022-12-18T09:45:20;62.17;;;20.83;;
42514;SDS011;28144;49.920;18.730;2022-12-18T09:47:46;65.82;;;20.50;;
42514;SDS011;28144;49.920;18.730;2022-12-18T09:50:29;61.03;;;20.40;;
42514;SDS011;28144;49.920;18.730;2022-12-18T09:53:05;60.80;;;19.30;;
42514;SDS011;28144;49.920;18.730;2022-12-18T09:55:37;62.50;;;19.87;;
42514;SDS011;28144;49.920;18.730;2022-12-18T10:00:43;61.90;;;21.37;;
42514;SDS011;28144;49.920;18.730;2022-12-18T10:03:10;67.03;;;22.75;;
42514;SDS011;28144;49.920;18.730;2022-12-18T10:10:59;57.73;;;19.97;;
42514;SDS011;28144;49.920;18.730;2022-12-18T10:13:44;56.90;;;20.53;;
42514;SDS011;28144;49.920;18.730;2022-12-18T10:16:19;56.63;;;19.23;;
42514;SDS011;28144;49.920;18.730;2022-12-18T10:21:43;65.83;;;22.50;;
42514;SDS011;28144;49.920;18.730;2022-12-18T10:24:21;60.73;;;20.97;;
42514;SDS011;28144;49.920;18.730;2022-12-18T10:26:50;67.23;;;22.93;;
42514;SDS011;28144;49.920;18.730;2022-12-18T10:29:17;70.33;;;23.63;;
42514;SDS011;28144;49.920;18.730;2022-12-18T10:31:43;89.77;;;29.93;;
42514;SDS011;28144;49.920;18.730;2022-12-18T10:34:12;76.93;;;24.73;;
42514;SDS011;28144;49.920;18.730;2022-12-18T10:36:40;81.43;;;27.37;;
42514;SDS011;28144;49.920;18.730;2022-12-18T10:41:43;83.03;;;25.17;;
42514;SDS011;28144;49.920;18.730;2022-12-18T10:44:16;91.23;;;29.27;;
42514;SDS011;28144;49.920;18.730;2022-12-18T10:46:55;67.07;;;23.30;;
42514;SDS011;28144;49.920;18.730;2022-12-18T10:49:29;87.17;;;27.90;;
42514;SDS011;28144;49.920;18.730;2022-12-18T10:52:15;81.77;;;25.87;;
42514;SDS011;28144;49.920;18.730;2022-12-18T10:54:51;90.23;;;27.33;;
42514;SDS011;28144;49.920;18.730;2022-12-18T10:57:37;85.20;;;27.03;;
42514;SDS011;28144;49.920;18.730;2022-12-18T11:00:25;97.03;;;30.70;;
42514;SDS011;28144;49.920;18.730;2022-12-18T11:02:53;99.27;;;32.03;;
42514;SDS011;28144;49.920;18.730;2022-12-18T11:07:55;90.78;;;28.30;;
42514;SDS011;28144;49.920;18.730;2022-12-18T11:10:23;86.18;;;28.92;;
42514;SDS011;28144;49.920;18.730;2022-12-18T11:12:51;89.43;;;27.97;;
42514;SDS011;28144;49.920;18.730;2022-12-18T11:15:26;83.93;;;26.87;;
42514;SDS011;28144;49.920;18.730;2022-12-18T11:17:53;86.83;;;27.67;;
42514;SDS011;28144;49.920;18.730;2022-12-18T11:20:34;93.27;;;30.17;;
42514;SDS011;28144;49.920;18.730;2022-12-18T11:23:04;92.73;;;27.47;;
42514;SDS011;28144;49.920;18.730;2022-12-18T11:25:32;91.90;;;28.07;;
42514;SDS011;28144;49.920;18.730;2022-12-18T11:28:02;87.10;;;31.30;;
42514;SDS011;28144;49.920;18.730;2022-12-18T11:31:08;85.73;;;27.43;;
42514;SDS011;28144;49.920;18.730;2022-12-18T11:33:34;102.20;;;30.40;;
42514;SDS011;28144;49.920;18.730;2022-12-18T11:36:03;74.57;;;24.00;;
42514;SDS011;28144;49.920;18.730;2022-12-18T11:38:31;96.05;;;32.30;;
42514;SDS011;28144;49.920;18.730;2022-12-18T11:44:19;93.33;;;33.03;;
42514;SDS011;28144;49.920;18.730;2022-12-18T11:49:19;90.27;;;25.83;;
42514;SDS011;28144;49.920;18.730;2022-12-18T11:54:19;85.10;;;26.33;;
42514;SDS011;28144;49.920;18.730;2022-12-18T11:56:46;75.93;;;24.13;;
42514;SDS011;28144;49.920;18.730;2022-12-18T12:04:58;97.67;;;30.03;;
42514;SDS011;28144;49.920;18.730;2022-12-18T12:21:50;95.37;;;31.07;;
42514;SDS011;28144;49.920;18.730;2022-12-18T12:24:26;103.90;;;31.33;;
42514;SDS011;28144;49.920;18.730;2022-12-18T12:29:46;124.13;;;36.50;;
42514;SDS011;28144;49.920;18.730;2022-12-18T12:40:18;119.60;;;35.33;;
42514;SDS011;28144;49.920;18.730;2022-12-18T12:42:50;107.30;;;35.30;;
42514;SDS011;28144;49.920;18.730;2022-12-18T12:46:00;111.83;;;33.83;;
42514;SDS011;28144;49.920;18.730;2022-12-18T12:51:11;95.70;;;27.80;;
42514;SDS011;28144;49.920;18.730;2022-12-18T12:53:51;103.03;;;30.43;;
42514;SDS011;28144;49.920;18.730;2022-12-18T12:56:18;100.22;;;30.73;;
42514;SDS011;28144;49.920;18.730;2022-12-18T13:06:58;96.73;;;30.47;;
42514;SDS011;28144;49.920;18.730;2022-12-18T13:09:33;90.87;;;27.33;;
42514;SDS011;28144;49.920;18.730;2022-12-18T13:12:04;110.53;;;35.30;;
42514;SDS011;28144;49.920;18.730;2022-12-18T13:14:52;107.60;;;34.70;;
42514;SDS011;28144;49.920;18.730;2022-12-18T13:20:05;112.00;;;35.77;;
42514;SDS011;28144;49.920;18.730;2022-12-18T13:22:40;116.60;;;35.80;;
42514;SDS011;28144;49.920;18.730;2022-12-18T13:28:11;110.53;;;33.40;;
42514;SDS011;28144;49.920;18.730;2022-12-18T13:38:32;125.13;;;36.63;;
42514;SDS011;28144;49.920;18.730;2022-12-18T13:48:55;100.00;;;31.57;;
42514;SDS011;28144;49.920;18.730;2022-12-18T13:51:28;127.33;;;39.37;;
42514;SDS011;28144;49.920;18.730;2022-12-18T13:53:59;120.93;;;41.47;;
42514;SDS011;28144;49.920;18.730;2022-12-18T13:56:31;124.23;;;41.43;;
42514;SDS011;28144;49.920;18.730;2022-12-18T14:01:41;120.73;;;39.50;;
42514;SDS011;28144;49.920;18.730;2022-12-18T14:04:30;123.30;;;41.40;;
42514;SDS011;28144;49.920;18.730;2022-12-18T14:06:58;136.70;;;43.37;;
42514;SDS011;28144;49.920;18.730;2022-12-18T14:09:28;156.80;;;43.13;;
42514;SDS011;28144;49.920;18.730;2022-12-18T14:11:55;152.47;;;44.93;;
42514;SDS011;28144;49.920;18.730;2022-12-18T14:14:44;148.70;;;43.40;;
42514;SDS011;28144;49.920;18.730;2022-12-18T14:17:12;149.27;;;44.33;;
42514;SDS011;28144;49.920;18.730;2022-12-18T14:22:16;159.97;;;45.90;;
42514;SDS011;28144;49.920;18.730;2022-12-18T14:24:44;175.77;;;51.43;;
42514;SDS011;28144;49.920;18.730;2022-12-18T14:27:20;188.53;;;53.20;;
42514;SDS011;28144;49.920;18.730;2022-12-18T14:29:48;182.97;;;54.53;;
42514;SDS011;28144;49.920;18.730;2022-12-18T14:32:15;186.47;;;53.97;;
42514;SDS011;28144;49.920;18.730;2022-12-18T14:34:47;175.97;;;52.47;;
42514;SDS011;28144;49.920;18.730;2022-12-18T14:37:20;206.67;;;65.63;;
42514;SDS011;28144;49.920;18.730;2022-12-18T14:39:54;199.37;;;56.70;;
42514;SDS011;28144;49.920;18.730;2022-12-18T14:42:24;181.77;;;55.33;;
42514;SDS011;28144;49.920;18.730;2022-12-18T14:47:58;198.27;;;57.10;;
42514;SDS011;28144;49.920;18.730;2022-12-18T14:50:24;208.10;;;57.80;;
42514;SDS011;28144;49.920;18.730;2022-12-18T14:52:50;229.57;;;58.63;;
42514;SDS011;28144;49.920;18.730;2022-12-18T14:55:17;197.90;;;54.22;;
42514;SDS011;28144;49.920;18.730;2022-12-18T14:57:44;216.23;;;61.87;;
42514;SDS011;28144;49.920;18.730;2022-12-18T15:00:17;190.97;;;58.43;;
42514;SDS011;28144;49.920;18.730;2022-12-18T15:02:48;190.57;;;56.23;;
42514;SDS011;28144;49.920;18.730;2022-12-18T15:05:28;169.47;;;51.33;;
42514;SDS011;28144;49.920;18.730;2022-12-18T15:07:55;182.97;;;52.80;;
42514;SDS011;28144;49.920;18.730;2022-12-18T15:10:23;196.67;;;56.00;;
42514;SDS011;28144;49.920;18.730;2022-12-18T15:18:04;192.87;;;57.03;;
42514;SDS011;28144;49.920;18.730;2022-12-18T15:20:32;197.40;;;56.60;;
42514;SDS011;28144;49.920;18.730;2022-12-18T15:25:46;161.40;;;50.93;;
42514;SDS011;28144;49.920;18.730;2022-12-18T15:33:26;170.67;;;49.37;;
42514;SDS011;28144;49.920;18.730;2022-12-18T15:35:56;186.40;;;57.93;;
42514;SDS011;28144;49.920;18.730;2022-12-18T15:38:23;865.80;;;194.47;;
42514;SDS011;28144;49.920;18.730;2022-12-18T15:40:48;722.20;;;157.80;;
42514;SDS011;28144;49.920;18.730;2022-12-18T15:43:14;489.03;;;105.80;;
42514;SDS011;28144;49.920;18.730;2022-12-18T15:45:59;338.23;;;68.93;;
42514;SDS011;28144;49.920;18.730;2022-12-18T15:48:25;182.18;;;49.85;;
42514;SDS011;28144;49.920;18.730;2022-12-18T15:50:52;178.67;;;47.10;;
42514;SDS011;28144;49.920;18.730;2022-12-18T15:53:18;143.68;;;36.90;;
42514;SDS011;28144;49.920;18.730;2022-12-18T15:55:44;120.65;;;35.03;;
42514;SDS011;28144;49.920;18.730;2022-12-18T15:58:28;118.57;;;34.27;;
42514;SDS011;28144;49.920;18.730;2022-12-18T16:00:54;151.07;;;39.87;;
42514;SDS011;28144;49.920;18.730;2022-12-18T16:03:21;117.20;;;37.20;;
42514;SDS011;28144;49.920;18.730;2022-12-18T16:05:47;177.43;;;50.75;;
42514;SDS011;28144;49.920;18.730;2022-12-18T16:08:12;144.93;;;44.30;;
42514;SDS011;28144;49.920;18.730;2022-12-18T16:10:38;108.07;;;29.90;;
42514;SDS011;28144;49.920;18.730;2022-12-18T16:13:04;94.73;;;27.93;;
42514;SDS011;28144;49.920;18.730;2022-12-18T16:15:30;60.60;;;19.93;;
42514;SDS011;28144;49.920;18.730;2022-12-18T16:17:55;71.27;;;24.30;;
42514;SDS011;28144;49.920;18.730;2022-12-18T16:20:21;80.10;;;26.90;;
42514;SDS011;28144;49.920;18.730;2022-12-18T16:22:47;91.37;;;29.07;;